createdAt,value
2023-02-01T00:04:05.530Z,5.43
2023-02-01T00:09:05.459Z,5.40
2023-02-01T00:14:05.381Z,5.46
2023-02-01T00:19:05.304Z,5.53
2023-02-01T00:24:05.248Z,5.56
2023-02-01T00:29:05.185Z,5.59
2023-02-01T00:34:05.125Z,5.56
2023-02-01T00:39:05.105Z,5.54
2023-02-01T00:44:05.041Z,5.53
2023-02-01T00:49:05.099Z,5.50
2023-02-01T00:54:05.115Z,5.46
2023-02-01T00:59:05.110Z,5.42
2023-02-01T01:04:05.134Z,5.47
2023-02-01T01:09:05.131Z,5.59
2023-02-01T01:14:05.157Z,5.62
2023-02-01T01:19:04.540Z,5.61
2023-02-01T01:24:04.478Z,5.57
2023-02-01T01:29:04.422Z,5.45
2023-02-01T01:34:04.355Z,5.38
2023-02-01T01:39:04.283Z,5.29
2023-02-01T01:44:04.246Z,5.24
2023-02-01T01:49:04.173Z,5.24
2023-02-01T01:54:04.093Z,5.25
2023-02-01T01:59:04.032Z,5.27
2023-02-01T02:04:03.967Z,5.29
2023-02-01T02:09:06.620Z,5.32
2023-02-01T02:14:03.890Z,5.35
2023-02-01T02:19:03.778Z,5.38
2023-02-01T02:24:03.707Z,5.38
2023-02-01T02:29:03.646Z,5.42
2023-02-01T02:34:03.592Z,5.46
2023-02-01T02:39:03.504Z,5.53
2023-02-01T02:44:03.459Z,5.59
2023-02-01T02:49:03.380Z,5.65
2023-02-01T02:54:03.327Z,5.64
2023-02-01T02:59:03.248Z,5.64
2023-02-01T03:04:03.199Z,5.62
2023-02-01T03:09:03.119Z,5.62
2023-02-01T03:14:03.067Z,5.59
2023-02-01T03:19:02.998Z,5.57
2023-02-01T03:24:02.932Z,5.54
2023-02-01T03:29:02.867Z,5.54
2023-02-01T03:34:02.822Z,5.56
2023-02-01T03:39:02.731Z,5.56
2023-02-01T03:44:02.692Z,5.54
2023-02-01T03:49:02.602Z,5.49
2023-02-01T03:54:02.559Z,5.45
2023-02-01T03:59:02.476Z,5.43
2023-02-01T04:04:02.435Z,5.43
2023-02-01T04:09:02.343Z,5.42
2023-02-01T04:14:02.297Z,5.42
2023-02-01T04:19:02.248Z,5.38
2023-02-01T04:24:02.187Z,5.35
2023-02-01T04:29:02.090Z,5.40
2023-02-01T04:34:02.036Z,5.45
2023-02-01T04:39:01.958Z,5.47
2023-02-01T04:44:01.918Z,5.47
2023-02-01T04:49:01.830Z,5.43
2023-02-01T04:54:01.772Z,5.42
2023-02-01T04:59:01.705Z,5.43
2023-02-01T05:04:01.647Z,5.43
2023-02-01T05:09:01.567Z,5.37
2023-02-01T05:14:02.632Z,5.37
2023-02-01T05:19:01.462Z,5.31
2023-02-01T05:24:01.393Z,5.20
2023-02-01T05:29:01.313Z,5.16
2023-02-01T05:34:01.256Z,5.10
2023-02-01T05:39:01.188Z,5.06
2023-02-01T05:44:01.127Z,5.03
2023-02-01T05:49:01.066Z,5.01
2023-02-01T05:54:01.000Z,4.99
2023-02-01T05:59:32.116Z,4.95
2023-02-01T06:04:00.936Z,4.93
2023-02-01T06:09:00.801Z,5.03
2023-02-01T06:14:00.728Z,5.10
2023-02-01T06:19:00.672Z,5.20
2023-02-01T06:24:00.600Z,5.32
2023-02-01T06:29:00.544Z,5.37
2023-02-01T06:34:00.475Z,5.42
2023-02-01T06:39:00.414Z,5.46
2023-02-01T06:44:00.346Z,5.56
2023-02-01T06:49:00.287Z,5.59
2023-02-01T06:54:00.223Z,5.59
2023-02-01T06:59:00.155Z,5.73
2023-02-01T07:04:00.135Z,5.80
2023-02-01T07:09:00.039Z,6.59
2023-02-01T07:13:59.952Z,7.31
2023-02-01T07:18:59.897Z,6.74
2023-02-01T07:23:59.826Z,6.32
2023-02-01T07:28:59.777Z,6.22
2023-02-01T07:33:59.726Z,6.19
2023-02-01T07:38:59.634Z,6.14
2023-02-01T07:43:59.563Z,6.14
2023-02-01T07:48:59.507Z,6.26
2023-02-01T07:53:59.432Z,6.37
2023-02-01T07:58:59.371Z,6.38
2023-02-01T08:03:59.297Z,6.32
2023-02-01T08:08:59.247Z,6.22
2023-02-01T08:13:59.169Z,6.22
2023-02-01T08:18:59.132Z,6.19
2023-02-01T08:23:59.041Z,6.01
2023-02-01T08:28:59.002Z,5.86
2023-02-01T08:33:58.922Z,5.69
2023-02-01T08:38:58.892Z,5.62
2023-02-01T08:43:58.779Z,5.54
2023-02-01T08:48:58.717Z,5.50
2023-02-01T08:53:58.643Z,5.65
2023-02-01T08:58:58.592Z,5.76
2023-02-01T09:03:58.558Z,5.90
2023-02-01T09:08:58.451Z,5.98
2023-02-01T09:13:58.375Z,6.04
2023-02-01T09:19:22.111Z,6.04
2023-02-01T09:23:59.291Z,6.11
2023-02-01T09:28:58.188Z,6.08
2023-02-01T09:33:58.116Z,6.07
2023-02-01T09:38:58.061Z,6.09
2023-02-01T09:43:57.986Z,6.09
2023-02-01T09:48:57.927Z,6.14
2023-02-01T09:53:57.855Z,6.30
2023-02-01T09:58:57.798Z,6.56
2023-02-01T10:03:57.742Z,8.18
2023-02-01T10:08:57.666Z,10.92
2023-02-01T10:13:57.597Z,11.04
2023-02-01T10:18:57.535Z,13.13
2023-02-01T10:24:00.971Z,14.28
2023-02-01T10:28:57.403Z,15.21
2023-02-01T10:33:57.335Z,14.36
2023-02-01T10:38:57.287Z,14.55
2023-02-01T10:43:57.196Z,14.63
2023-02-01T10:48:57.142Z,14.88
2023-02-01T10:53:57.073Z,13.00
2023-02-01T10:58:57.009Z,12.45
2023-02-01T11:03:56.936Z,11.35
2023-02-01T11:08:56.900Z,10.46
2023-02-01T11:13:56.814Z,10.05
2023-02-01T11:18:56.761Z,10.33
2023-02-01T11:23:56.674Z,10.60
2023-02-01T11:28:56.621Z,11.13
2023-02-01T11:33:56.539Z,11.14
2023-02-01T11:38:56.481Z,10.74
2023-02-01T11:43:56.412Z,10.19
2023-02-01T11:48:56.372Z,9.84
2023-02-01T11:53:56.276Z,9.95
2023-02-01T11:58:56.217Z,10.07
2023-02-01T12:03:56.147Z,10.20
2023-02-01T12:08:56.096Z,10.23
2023-02-01T12:13:56.011Z,10.20
2023-02-01T12:18:55.958Z,10.33
2023-02-01T12:23:55.883Z,10.19
2023-02-01T12:28:55.836Z,10.01
2023-02-01T12:33:55.953Z,10.23
2023-02-01T12:38:55.704Z,10.07
2023-02-01T12:43:55.620Z,9.86
2023-02-01T12:48:55.563Z,9.46
2023-02-01T12:53:55.491Z,9.18
2023-02-01T12:58:55.436Z,8.89
2023-02-01T13:03:55.360Z,8.66
2023-02-01T13:08:55.329Z,8.45
2023-02-01T13:13:55.267Z,8.30
2023-02-01T13:18:55.168Z,8.19
2023-02-01T13:23:55.100Z,8.14
2023-02-01T13:28:55.042Z,8.08
2023-02-01T13:33:56.451Z,8.05
2023-02-01T13:38:54.909Z,8.04
2023-02-01T13:43:54.845Z,8.02
2023-02-01T13:48:54.785Z,8.02
2023-02-01T13:53:54.721Z,7.86
2023-02-01T13:58:54.655Z,7.86
2023-02-01T14:03:54.578Z,8.05
2023-02-01T14:08:54.519Z,8.23
2023-02-01T14:13:54.446Z,8.17
2023-02-01T14:18:54.390Z,8.05
2023-02-01T14:23:54.315Z,7.92
2023-02-01T14:28:54.276Z,7.74
2023-02-01T14:33:54.183Z,7.56
2023-02-01T14:38:54.126Z,7.45
2023-02-01T14:43:54.064Z,7.58
2023-02-01T14:48:54.000Z,7.69
2023-02-01T14:53:53.923Z,7.76
2023-02-01T14:58:53.878Z,7.72
2023-02-01T15:03:53.790Z,7.60
2023-02-01T15:08:53.729Z,7.47
2023-02-01T15:13:53.864Z,7.47
2023-02-01T15:18:53.599Z,7.50
2023-02-01T15:23:53.524Z,7.53
2023-02-01T15:28:53.472Z,7.53
2023-02-01T15:33:53.392Z,7.47
2023-02-01T15:38:53.333Z,7.40
2023-02-01T15:43:53.988Z,7.36
2023-02-01T15:48:53.197Z,7.32
2023-02-01T15:53:53.138Z,7.25
2023-02-01T15:58:53.057Z,7.11
2023-02-01T16:03:53.002Z,6.83
2023-02-01T16:08:52.927Z,6.73
2023-02-01T16:13:52.866Z,6.68
2023-02-01T16:18:52.795Z,6.01
2023-02-01T16:23:52.741Z,4.86
2023-02-01T16:28:52.667Z,4.17
2023-02-01T16:33:52.611Z,3.82
2023-02-01T16:38:52.526Z,3.65
2023-02-01T16:43:52.467Z,3.59
2023-02-01T16:48:52.400Z,3.57
2023-02-01T16:53:55.006Z,3.62
2023-02-01T16:58:52.269Z,3.75
2023-02-01T17:03:52.234Z,3.80
2023-02-01T17:08:52.153Z,3.87
2023-02-01T17:13:52.085Z,3.86
2023-02-01T17:18:52.011Z,3.83
2023-02-01T17:23:51.950Z,3.77
2023-02-01T17:28:51.879Z,3.73
2023-02-01T17:33:51.827Z,3.67
2023-02-01T17:39:04.828Z,3.58
2023-02-01T17:43:52.712Z,3.52
2023-02-01T17:48:51.615Z,3.46
2023-02-01T17:53:51.561Z,3.52
2023-02-01T17:58:51.563Z,3.68
2023-02-01T18:03:51.428Z,3.77
2023-02-01T18:08:51.395Z,3.87
2023-02-01T18:13:51.302Z,3.94
2023-02-01T18:18:51.232Z,3.97
2023-02-01T18:23:51.186Z,4.03
2023-02-01T18:28:51.113Z,4.12
2023-02-01T18:33:51.048Z,4.14
2023-02-01T18:38:50.984Z,4.13
2023-02-01T18:43:51.013Z,4.12
2023-02-01T18:48:50.850Z,4.05
2023-02-01T18:53:50.795Z,4.01
2023-02-01T18:58:50.726Z,4.05
2023-02-01T19:03:55.993Z,4.10
2023-02-01T19:08:51.621Z,4.12
2023-02-01T19:13:50.567Z,4.14
2023-02-01T19:18:50.471Z,4.13
2023-02-01T19:23:50.412Z,4.16
2023-02-01T19:28:50.341Z,4.16
2023-02-01T19:33:50.487Z,4.00
2023-02-01T19:38:50.219Z,3.87
2023-02-01T19:43:50.161Z,3.76
2023-02-01T19:48:50.090Z,3.67
2023-02-01T19:53:50.042Z,3.58
2023-02-01T19:58:49.961Z,3.50
2023-02-01T20:03:49.039Z,3.41
2023-02-01T20:08:48.982Z,3.41
2023-02-01T20:13:48.922Z,3.54
2023-02-01T20:18:48.856Z,3.57
2023-02-01T20:23:48.806Z,3.57
2023-02-01T20:28:49.595Z,3.61
2023-02-01T20:33:49.541Z,3.65
2023-02-01T20:38:49.476Z,3.72
2023-02-01T20:43:49.423Z,3.75
2023-02-01T20:48:49.355Z,3.79
2023-02-01T20:53:49.300Z,3.80
2023-02-01T20:58:49.232Z,3.79
2023-02-01T21:03:49.179Z,3.82
2023-02-01T21:08:49.113Z,3.85
2023-02-01T21:13:49.057Z,3.85
2023-02-01T21:18:48.988Z,3.90
2023-02-01T21:23:48.945Z,3.95
2023-02-01T21:28:48.862Z,3.95
2023-02-01T21:33:48.812Z,4.03
2023-02-01T21:38:48.738Z,4.04
2023-02-01T21:43:48.681Z,4.12
2023-02-01T21:49:04.120Z,4.23
2023-02-01T21:53:49.589Z,4.34
2023-02-01T21:58:48.482Z,4.31
2023-02-01T22:03:48.452Z,4.24
2023-02-01T22:08:48.365Z,4.20
2023-02-01T22:13:48.305Z,4.22
2023-02-01T22:18:48.224Z,4.19
2023-02-01T22:23:48.165Z,4.10
2023-02-01T22:28:48.099Z,4.03
2023-02-01T22:33:48.038Z,4.00
2023-02-01T22:38:47.970Z,3.98
2023-02-01T22:43:47.917Z,3.91
2023-02-01T22:48:47.836Z,3.90
2023-02-01T22:53:47.769Z,3.91
2023-02-01T22:58:47.696Z,3.90
2023-02-01T23:03:47.636Z,3.90
2023-02-01T23:08:47.562Z,3.90
2023-02-01T23:13:47.502Z,3.91
2023-02-01T23:18:47.430Z,3.90
2023-02-01T23:23:47.385Z,3.87
2023-02-01T23:28:47.318Z,3.90
2023-02-01T23:33:47.245Z,3.86
2023-02-01T23:38:47.182Z,3.83
2023-02-01T23:43:47.123Z,3.86
2023-02-01T23:48:47.051Z,3.87
2023-02-01T23:53:46.993Z,3.85
2023-02-01T23:58:46.922Z,3.83
